sensor_id;sensor_type;location;lat;lon;timestamp;temperature;humidity
16040;DHT22;8124;48.634;8.120;2022-12-07T00:02:30;6.90;99.90
16040;DHT22;8124;48.634;8.120;2022-12-07T00:07:41;7.10;99.90
16040;DHT22;8124;48.634;8.120;2022-12-07T00:12:44;7.20;99.90
16040;DHT22;8124;48.634;8.120;2022-12-07T00:17:46;7.20;99.90
16040;DHT22;8124;48.634;8.120;2022-12-07T00:22:51;7.20;99.90
16040;DHT22;8124;48.634;8.120;2022-12-07T00:27:54;7.20;99.90
16040;DHT22;8124;48.634;8.120;2022-12-07T00:32:58;7.10;99.90
16040;DHT22;8124;48.634;8.120;2022-12-07T00:38:02;7.20;99.90
16040;DHT22;8124;48.634;8.120;2022-12-07T00:43:05;7.20;99.90
16040;DHT22;8124;48.634;8.120;2022-12-07T00:48:08;7.20;99.90
16040;DHT22;8124;48.634;8.120;2022-12-07T00:53:12;7.10;99.90
16040;DHT22;8124;48.634;8.120;2022-12-07T00:58:15;7.20;99.90
16040;DHT22;8124;48.634;8.120;2022-12-07T01:03:18;7.20;99.90
16040;DHT22;8124;48.634;8.120;2022-12-07T01:08:24;7.30;99.90
16040;DHT22;8124;48.634;8.120;2022-12-07T01:13:27;7.30;99.90
16040;DHT22;8124;48.634;8.120;2022-12-07T01:18:32;7.20;99.90
16040;DHT22;8124;48.634;8.120;2022-12-07T01:23:38;7.20;99.90
16040;DHT22;8124;48.634;8.120;2022-12-07T01:28:41;7.20;99.90
16040;DHT22;8124;48.634;8.120;2022-12-07T01:33:46;7.30;99.90
16040;DHT22;8124;48.634;8.120;2022-12-07T01:38:53;7.20;99.90
16040;DHT22;8124;48.634;8.120;2022-12-07T01:44:13;7.20;99.90
16040;DHT22;8124;48.634;8.120;2022-12-07T01:49:21;7.20;99.90
16040;DHT22;8124;48.634;8.120;2022-12-07T01:54:26;7.10;99.90
16040;DHT22;8124;48.634;8.120;2022-12-07T01:59:29;7.10;99.90
16040;DHT22;8124;48.634;8.120;2022-12-07T02:04:32;7.10;99.90
16040;DHT22;8124;48.634;8.120;2022-12-07T02:09:37;7.10;99.90
16040;DHT22;8124;48.634;8.120;2022-12-07T02:14:40;7.10;99.90
16040;DHT22;8124;48.634;8.120;2022-12-07T02:20:17;7.20;99.90
16040;DHT22;8124;48.634;8.120;2022-12-07T02:25:33;7.10;99.90
16040;DHT22;8124;48.634;8.120;2022-12-07T02:30:47;7.00;99.90
16040;DHT22;8124;48.634;8.120;2022-12-07T02:35:55;7.10;99.90
16040;DHT22;8124;48.634;8.120;2022-12-07T02:41:06;7.10;99.90
16040;DHT22;8124;48.634;8.120;2022-12-07T02:46:14;7.20;99.90
16040;DHT22;8124;48.634;8.120;2022-12-07T02:51:19;7.20;99.90
16040;DHT22;8124;48.634;8.120;2022-12-07T02:56:33;7.00;99.90
16040;DHT22;8124;48.634;8.120;2022-12-07T03:01:52;6.90;99.90
16040;DHT22;8124;48.634;8.120;2022-12-07T03:07:05;6.90;99.90
16040;DHT22;8124;48.634;8.120;2022-12-07T03:12:10;7.00;99.90
16040;DHT22;8124;48.634;8.120;2022-12-07T03:17:19;7.00;99.90
16040;DHT22;8124;48.634;8.120;2022-12-07T03:22:27;7.00;99.90
16040;DHT22;8124;48.634;8.120;2022-12-07T03:27:34;7.10;99.90
16040;DHT22;8124;48.634;8.120;2022-12-07T03:32:43;7.10;99.90
16040;DHT22;8124;48.634;8.120;2022-12-07T03:37:50;7.00;99.90
16040;DHT22;8124;48.634;8.120;2022-12-07T03:42:57;7.00;99.90
16040;DHT22;8124;48.634;8.120;2022-12-07T03:48:08;6.90;99.90
16040;DHT22;8124;48.634;8.120;2022-12-07T03:53:15;7.00;99.90
16040;DHT22;8124;48.634;8.120;2022-12-07T03:58:21;7.00;99.90
16040;DHT22;8124;48.634;8.120;2022-12-07T04:03:26;6.70;99.90
16040;DHT22;8124;48.634;8.120;2022-12-07T04:08:29;6.60;99.90
16040;DHT22;8124;48.634;8.120;2022-12-07T04:13:32;6.60;99.90
16040;DHT22;8124;48.634;8.120;2022-12-07T04:18:57;6.60;99.90
16040;DHT22;8124;48.634;8.120;2022-12-07T04:24:00;6.40;99.90
16040;DHT22;8124;48.634;8.120;2022-12-07T04:29:03;6.70;99.90
16040;DHT22;8124;48.634;8.120;2022-12-07T04:34:10;6.50;99.90
16040;DHT22;8124;48.634;8.120;2022-12-07T04:39:21;6.50;99.90
16040;DHT22;8124;48.634;8.120;2022-12-07T04:44:25;6.60;99.90
16040;DHT22;8124;48.634;8.120;2022-12-07T04:49:30;6.60;99.90
16040;DHT22;8124;48.634;8.120;2022-12-07T04:54:33;6.50;99.90
16040;DHT22;8124;48.634;8.120;2022-12-07T04:59:36;6.50;99.90
16040;DHT22;8124;48.634;8.120;2022-12-07T05:04:47;6.40;99.90
16040;DHT22;8124;48.634;8.120;2022-12-07T05:09:50;6.50;99.90
16040;DHT22;8124;48.634;8.120;2022-12-07T05:14:53;6.40;99.90
16040;DHT22;8124;48.634;8.120;2022-12-07T05:19:57;6.40;99.90
16040;DHT22;8124;48.634;8.120;2022-12-07T05:25:01;6.70;99.90
16040;DHT22;8124;48.634;8.120;2022-12-07T05:30:05;6.70;99.90
16040;DHT22;8124;48.634;8.120;2022-12-07T05:35:11;6.60;99.90
16040;DHT22;8124;48.634;8.120;2022-12-07T05:40:15;6.50;99.90
16040;DHT22;8124;48.634;8.120;2022-12-07T05:45:18;6.50;99.90
16040;DHT22;8124;48.634;8.120;2022-12-07T05:50:22;6.50;99.90
16040;DHT22;8124;48.634;8.120;2022-12-07T05:55:34;6.30;99.90
16040;DHT22;8124;48.634;8.120;2022-12-07T06:00:37;6.40;99.90
16040;DHT22;8124;48.634;8.120;2022-12-07T06:05:41;6.30;99.90
16040;DHT22;8124;48.634;8.120;2022-12-07T06:10:44;6.00;99.90
16040;DHT22;8124;48.634;8.120;2022-12-07T06:16:09;6.10;99.90
16040;DHT22;8124;48.634;8.120;2022-12-07T06:21:13;5.90;99.90
16040;DHT22;8124;48.634;8.120;2022-12-07T06:26:16;6.10;99.90
16040;DHT22;8124;48.634;8.120;2022-12-07T06:31:19;6.10;99.90
16040;DHT22;8124;48.634;8.120;2022-12-07T06:36:23;6.20;99.90
16040;DHT22;8124;48.634;8.120;2022-12-07T06:41:28;6.30;99.90
16040;DHT22;8124;48.634;8.120;2022-12-07T06:46:31;6.30;99.90
16040;DHT22;8124;48.634;8.120;2022-12-07T06:51:35;6.20;99.90
16040;DHT22;8124;48.634;8.120;2022-12-07T06:56:42;6.00;99.90
16040;DHT22;8124;48.634;8.120;2022-12-07T07:01:45;6.10;99.90
16040;DHT22;8124;48.634;8.120;2022-12-07T07:06:49;6.20;99.90
16040;DHT22;8124;48.634;8.120;2022-12-07T07:12:00;6.10;99.90
16040;DHT22;8124;48.634;8.120;2022-12-07T07:17:03;6.10;99.90
16040;DHT22;8124;48.634;8.120;2022-12-07T07:22:07;6.10;99.90
16040;DHT22;8124;48.634;8.120;2022-12-07T07:27:10;5.90;99.90
16040;DHT22;8124;48.634;8.120;2022-12-07T07:32:13;6.00;99.90
16040;DHT22;8124;48.634;8.120;2022-12-07T07:37:18;6.20;99.90
16040;DHT22;8124;48.634;8.120;2022-12-07T07:42:22;6.10;99.90
16040;DHT22;8124;48.634;8.120;2022-12-07T07:47:25;6.10;99.90
16040;DHT22;8124;48.634;8.120;2022-12-07T07:52:30;6.30;99.90
16040;DHT22;8124;48.634;8.120;2022-12-07T07:57:33;6.30;99.90
16040;DHT22;8124;48.634;8.120;2022-12-07T08:02:37;6.30;99.90
16040;DHT22;8124;48.634;8.120;2022-12-07T08:07:41;6.30;99.90
16040;DHT22;8124;48.634;8.120;2022-12-07T08:12:45;6.40;99.90
16040;DHT22;8124;48.634;8.120;2022-12-07T08:18:05;6.40;99.90
16040;DHT22;8124;48.634;8.120;2022-12-07T08:23:10;6.50;99.90
16040;DHT22;8124;48.634;8.120;2022-12-07T08:28:13;6.40;99.90
16040;DHT22;8124;48.634;8.120;2022-12-07T08:33:16;6.60;99.90
16040;DHT22;8124;48.634;8.120;2022-12-07T08:38:20;6.30;99.90
16040;DHT22;8124;48.634;8.120;2022-12-07T08:43:29;6.30;99.90
16040;DHT22;8124;48.634;8.120;2022-12-07T08:48:33;6.40;99.90
16040;DHT22;8124;48.634;8.120;2022-12-07T08:53:39;6.60;99.90
16040;DHT22;8124;48.634;8.120;2022-12-07T08:58:43;6.60;99.90
16040;DHT22;8124;48.634;8.120;2022-12-07T09:03:47;6.80;99.90
16040;DHT22;8124;48.634;8.120;2022-12-07T09:08:56;6.70;99.90
16040;DHT22;8124;48.634;8.120;2022-12-07T09:14:00;6.60;99.90
16040;DHT22;8124;48.634;8.120;2022-12-07T09:19:03;6.90;99.90
16040;DHT22;8124;48.634;8.120;2022-12-07T09:24:07;7.00;99.90
16040;DHT22;8124;48.634;8.120;2022-12-07T09:29:10;7.00;99.90
16040;DHT22;8124;48.634;8.120;2022-12-07T09:34:13;6.70;99.90
16040;DHT22;8124;48.634;8.120;2022-12-07T09:39:18;6.90;99.90
16040;DHT22;8124;48.634;8.120;2022-12-07T09:44:23;6.80;99.90
16040;DHT22;8124;48.634;8.120;2022-12-07T09:49:28;6.90;99.90
16040;DHT22;8124;48.634;8.120;2022-12-07T09:54:36;6.90;99.90
16040;DHT22;8124;48.634;8.120;2022-12-07T09:59:41;6.80;99.90
16040;DHT22;8124;48.634;8.120;2022-12-07T10:04:44;6.80;99.90
16040;DHT22;8124;48.634;8.120;2022-12-07T10:09:49;6.80;99.90
16040;DHT22;8124;48.634;8.120;2022-12-07T10:14:55;6.70;99.90
16040;DHT22;8124;48.634;8.120;2022-12-07T10:20:17;6.80;99.90
16040;DHT22;8124;48.634;8.120;2022-12-07T10:25:25;6.80;99.90
16040;DHT22;8124;48.634;8.120;2022-12-07T10:30:29;6.80;99.90
16040;DHT22;8124;48.634;8.120;2022-12-07T10:35:32;6.80;99.90
16040;DHT22;8124;48.634;8.120;2022-12-07T10:40:36;6.90;99.90
16040;DHT22;8124;48.634;8.120;2022-12-07T10:46:13;6.80;99.90
16040;DHT22;8124;48.634;8.120;2022-12-07T10:51:25;6.90;99.90
16040;DHT22;8124;48.634;8.120;2022-12-07T10:56:54;6.90;99.90
16040;DHT22;8124;48.634;8.120;2022-12-07T11:02:11;7.10;99.90
16040;DHT22;8124;48.634;8.120;2022-12-07T11:07:32;7.10;99.90
16040;DHT22;8124;48.634;8.120;2022-12-07T11:12:51;7.00;99.90
16040;DHT22;8124;48.634;8.120;2022-12-07T11:18:03;7.00;99.90
16040;DHT22;8124;48.634;8.120;2022-12-07T11:23:16;6.70;99.90
16040;DHT22;8124;48.634;8.120;2022-12-07T11:28:33;6.70;99.90
16040;DHT22;8124;48.634;8.120;2022-12-07T11:33:44;6.70;99.90
16040;DHT22;8124;48.634;8.120;2022-12-07T11:38:52;6.90;99.90
16040;DHT22;8124;48.634;8.120;2022-12-07T11:44:00;6.90;99.90
16040;DHT22;8124;48.634;8.120;2022-12-07T11:49:10;7.00;99.90
16040;DHT22;8124;48.634;8.120;2022-12-07T11:54:18;7.10;99.90
16040;DHT22;8124;48.634;8.120;2022-12-07T11:59:30;7.10;99.90
16040;DHT22;8124;48.634;8.120;2022-12-07T12:04:45;7.20;99.90
16040;DHT22;8124;48.634;8.120;2022-12-07T12:09:52;7.20;99.90
16040;DHT22;8124;48.634;8.120;2022-12-07T12:15:08;7.30;99.90
16040;DHT22;8124;48.634;8.120;2022-12-07T12:20:21;7.20;99.90
16040;DHT22;8124;48.634;8.120;2022-12-07T12:25:28;7.30;99.90
16040;DHT22;8124;48.634;8.120;2022-12-07T12:30:35;7.30;99.90
16040;DHT22;8124;48.634;8.120;2022-12-07T12:35:39;7.40;99.90
16040;DHT22;8124;48.634;8.120;2022-12-07T12:40:43;7.30;99.90
16040;DHT22;8124;48.634;8.120;2022-12-07T12:51:38;7.50;99.90
16040;DHT22;8124;48.634;8.120;2022-12-07T12:56:47;7.40;99.90
16040;DHT22;8124;48.634;8.120;2022-12-07T13:01:56;7.40;99.90
16040;DHT22;8124;48.634;8.120;2022-12-07T13:07:00;7.40;99.90
16040;DHT22;8124;48.634;8.120;2022-12-07T13:12:05;7.50;99.90
16040;DHT22;8124;48.634;8.120;2022-12-07T13:23:01;7.60;99.90
16040;DHT22;8124;48.634;8.120;2022-12-07T13:28:13;7.60;99.90
16040;DHT22;8124;48.634;8.120;2022-12-07T13:33:17;7.70;99.90
16040;DHT22;8124;48.634;8.120;2022-12-07T13:38:27;7.70;99.90
16040;DHT22;8124;48.634;8.120;2022-12-07T13:43:31;7.80;99.90
16040;DHT22;8124;48.634;8.120;2022-12-07T13:48:36;7.70;99.90
16040;DHT22;8124;48.634;8.120;2022-12-07T13:53:50;7.70;99.90
16040;DHT22;8124;48.634;8.120;2022-12-07T13:58:54;7.70;99.90
16040;DHT22;8124;48.634;8.120;2022-12-07T14:04:19;7.70;99.90
16040;DHT22;8124;48.634;8.120;2022-12-07T14:09:30;7.70;99.90
16040;DHT22;8124;48.634;8.120;2022-12-07T14:14:33;7.70;99.90
16040;DHT22;8124;48.634;8.120;2022-12-07T14:19:49;7.70;99.90
16040;DHT22;8124;48.634;8.120;2022-12-07T14:30:18;7.70;99.90
16040;DHT22;8124;48.634;8.120;2022-12-07T14:35:21;7.70;99.90
16040;DHT22;8124;48.634;8.120;2022-12-07T14:40:27;7.50;99.90
16040;DHT22;8124;48.634;8.120;2022-12-07T14:45:30;7.50;99.90
16040;DHT22;8124;48.634;8.120;2022-12-07T14:50:37;7.10;99.90
16040;DHT22;8124;48.634;8.120;2022-12-07T14:55:41;7.10;99.90
16040;DHT22;8124;48.634;8.120;2022-12-07T15:00:44;7.10;99.90
16040;DHT22;8124;48.634;8.120;2022-12-07T15:05:49;7.00;99.90
16040;DHT22;8124;48.634;8.120;2022-12-07T15:10:53;7.00;99.90
16040;DHT22;8124;48.634;8.120;2022-12-07T15:15:56;6.70;99.90
16040;DHT22;8124;48.634;8.120;2022-12-07T15:20:59;6.70;99.90
16040;DHT22;8124;48.634;8.120;2022-12-07T15:26:03;6.60;99.90
16040;DHT22;8124;48.634;8.120;2022-12-07T15:31:11;6.50;99.90
16040;DHT22;8124;48.634;8.120;2022-12-07T15:36:34;6.40;99.90
16040;DHT22;8124;48.634;8.120;2022-12-07T15:41:39;6.60;99.90
16040;DHT22;8124;48.634;8.120;2022-12-07T15:46:41;6.90;99.90
16040;DHT22;8124;48.634;8.120;2022-12-07T15:51:45;6.70;99.90
16040;DHT22;8124;48.634;8.120;2022-12-07T15:56:50;6.90;99.90
16040;DHT22;8124;48.634;8.120;2022-12-07T16:01:52;7.00;99.90
16040;DHT22;8124;48.634;8.120;2022-12-07T16:07:02;7.20;99.90
16040;DHT22;8124;48.634;8.120;2022-12-07T16:12:06;7.10;99.90
16040;DHT22;8124;48.634;8.120;2022-12-07T16:17:10;7.10;99.90
16040;DHT22;8124;48.634;8.120;2022-12-07T16:22:13;7.20;99.90
16040;DHT22;8124;48.634;8.120;2022-12-07T16:27:17;7.30;99.90
16040;DHT22;8124;48.634;8.120;2022-12-07T16:32:20;7.20;99.90
16040;DHT22;8124;48.634;8.120;2022-12-07T16:37:24;8.50;99.90
16040;DHT22;8124;48.634;8.120;2022-12-07T16:42:31;8.10;99.90
16040;DHT22;8124;48.634;8.120;2022-12-07T16:47:37;7.80;99.90
16040;DHT22;8124;48.634;8.120;2022-12-07T16:52:40;7.70;99.90
16040;DHT22;8124;48.634;8.120;2022-12-07T16:57:44;7.70;99.90
16040;DHT22;8124;48.634;8.120;2022-12-07T17:02:47;7.70;99.90
16040;DHT22;8124;48.634;8.120;2022-12-07T17:07:50;7.70;99.90
16040;DHT22;8124;48.634;8.120;2022-12-07T17:12:59;7.60;99.90
16040;DHT22;8124;48.634;8.120;2022-12-07T17:23:21;7.60;99.90
16040;DHT22;8124;48.634;8.120;2022-12-07T17:28:27;7.50;99.90
16040;DHT22;8124;48.634;8.120;2022-12-07T17:33:31;7.50;99.90
16040;DHT22;8124;48.634;8.120;2022-12-07T17:38:34;7.40;99.90
16040;DHT22;8124;48.634;8.120;2022-12-07T17:43:38;7.40;99.90
16040;DHT22;8124;48.634;8.120;2022-12-07T17:48:41;7.40;99.90
16040;DHT22;8124;48.634;8.120;2022-12-07T17:53:48;7.30;99.90
16040;DHT22;8124;48.634;8.120;2022-12-07T17:58:52;7.20;99.90
16040;DHT22;8124;48.634;8.120;2022-12-07T18:03:55;7.20;99.90
16040;DHT22;8124;48.634;8.120;2022-12-07T18:08:58;7.20;99.90
16040;DHT22;8124;48.634;8.120;2022-12-07T18:14:04;7.20;99.90
16040;DHT22;8124;48.634;8.120;2022-12-07T18:19:08;7.00;99.90
16040;DHT22;8124;48.634;8.120;2022-12-07T18:24:16;7.00;99.90
16040;DHT22;8124;48.634;8.120;2022-12-07T18:29:20;7.20;99.90
16040;DHT22;8124;48.634;8.120;2022-12-07T18:34:23;7.30;99.90
16040;DHT22;8124;48.634;8.120;2022-12-07T18:39:29;7.30;99.90
16040;DHT22;8124;48.634;8.120;2022-12-07T18:44:42;7.20;99.90
16040;DHT22;8124;48.634;8.120;2022-12-07T18:49:48;7.10;99.90
16040;DHT22;8124;48.634;8.120;2022-12-07T18:54:54;7.00;99.90
16040;DHT22;8124;48.634;8.120;2022-12-07T18:59:59;7.00;99.90
16040;DHT22;8124;48.634;8.120;2022-12-07T19:05:02;6.90;99.90
16040;DHT22;8124;48.634;8.120;2022-12-07T19:10:06;6.80;99.90
16040;DHT22;8124;48.634;8.120;2022-12-07T19:15:18;6.70;99.90
16040;DHT22;8124;48.634;8.120;2022-12-07T19:20:21;6.80;99.90
16040;DHT22;8124;48.634;8.120;2022-12-07T19:25:24;6.80;99.90
16040;DHT22;8124;48.634;8.120;2022-12-07T19:30:47;6.90;99.90
16040;DHT22;8124;48.634;8.120;2022-12-07T19:35:50;6.80;99.90
16040;DHT22;8124;48.634;8.120;2022-12-07T19:40:53;6.80;99.90
16040;DHT22;8124;48.634;8.120;2022-12-07T19:46:06;6.60;99.90
16040;DHT22;8124;48.634;8.120;2022-12-07T19:51:10;6.60;99.90
16040;DHT22;8124;48.634;8.120;2022-12-07T19:56:14;6.70;99.90
16040;DHT22;8124;48.634;8.120;2022-12-07T20:01:28;6.50;99.90
16040;DHT22;8124;48.634;8.120;2022-12-07T20:06:31;6.30;99.90
16040;DHT22;8124;48.634;8.120;2022-12-07T20:11:35;6.30;99.90
16040;DHT22;8124;48.634;8.120;2022-12-07T20:16:57;6.70;99.90
16040;DHT22;8124;48.634;8.120;2022-12-07T20:22:00;6.60;99.90
16040;DHT22;8124;48.634;8.120;2022-12-07T20:27:11;6.50;99.90
16040;DHT22;8124;48.634;8.120;2022-12-07T20:32:15;6.40;99.90
16040;DHT22;8124;48.634;8.120;2022-12-07T20:37:21;6.30;99.90
16040;DHT22;8124;48.634;8.120;2022-12-07T20:42:24;6.20;99.90
16040;DHT22;8124;48.634;8.120;2022-12-07T20:47:40;5.70;99.90
16040;DHT22;8124;48.634;8.120;2022-12-07T20:52:43;5.50;99.90
16040;DHT22;8124;48.634;8.120;2022-12-07T20:57:46;5.90;99.90
16040;DHT22;8124;48.634;8.120;2022-12-07T21:02:50;5.80;99.90
16040;DHT22;8124;48.634;8.120;2022-12-07T21:07:53;5.70;99.90
16040;DHT22;8124;48.634;8.120;2022-12-07T21:12:56;5.40;99.90
16040;DHT22;8124;48.634;8.120;2022-12-07T21:18:00;5.00;99.90
16040;DHT22;8124;48.634;8.120;2022-12-07T21:23:08;4.60;99.90
16040;DHT22;8124;48.634;8.120;2022-12-07T21:28:11;4.70;99.90
16040;DHT22;8124;48.634;8.120;2022-12-07T21:33:15;5.00;99.90
16040;DHT22;8124;48.634;8.120;2022-12-07T21:38:18;5.20;99.90
16040;DHT22;8124;48.634;8.120;2022-12-07T21:43:21;5.30;99.90
16040;DHT22;8124;48.634;8.120;2022-12-07T21:48:25;5.40;99.90
16040;DHT22;8124;48.634;8.120;2022-12-07T21:53:28;5.40;99.90
16040;DHT22;8124;48.634;8.120;2022-12-07T21:58:31;5.50;99.90
16040;DHT22;8124;48.634;8.120;2022-12-07T22:03:35;5.20;99.90
16040;DHT22;8124;48.634;8.120;2022-12-07T22:08:38;5.30;99.90
16040;DHT22;8124;48.634;8.120;2022-12-07T22:13:43;5.40;99.90
16040;DHT22;8124;48.634;8.120;2022-12-07T22:19:12;5.30;99.90
16040;DHT22;8124;48.634;8.120;2022-12-07T22:24:15;5.40;99.90
16040;DHT22;8124;48.634;8.120;2022-12-07T22:29:18;5.50;99.90
16040;DHT22;8124;48.634;8.120;2022-12-07T22:34:22;5.40;99.90
16040;DHT22;8124;48.634;8.120;2022-12-07T22:39:25;5.50;99.90
16040;DHT22;8124;48.634;8.120;2022-12-07T22:44:28;5.50;99.90
16040;DHT22;8124;48.634;8.120;2022-12-07T22:49:33;5.50;99.90
16040;DHT22;8124;48.634;8.120;2022-12-07T22:54:36;5.60;99.90
16040;DHT22;8124;48.634;8.120;2022-12-07T22:59:39;5.50;99.90
16040;DHT22;8124;48.634;8.120;2022-12-07T23:04:43;5.50;99.90
16040;DHT22;8124;48.634;8.120;2022-12-07T23:09:46;5.40;99.90
16040;DHT22;8124;48.634;8.120;2022-12-07T23:14:49;5.40;99.90
16040;DHT22;8124;48.634;8.120;2022-12-07T23:19:55;4.80;99.90
16040;DHT22;8124;48.634;8.120;2022-12-07T23:24:58;4.10;99.90
16040;DHT22;8124;48.634;8.120;2022-12-07T23:30:02;3.80;99.90
16040;DHT22;8124;48.634;8.120;2022-12-07T23:35:08;4.10;99.90
16040;DHT22;8124;48.634;8.120;2022-12-07T23:40:11;3.90;99.90
16040;DHT22;8124;48.634;8.120;2022-12-07T23:45:14;4.20;99.90
16040;DHT22;8124;48.634;8.120;2022-12-07T23:50:18;4.40;99.90
16040;DHT22;8124;48.634;8.120;2022-12-07T23:55:21;4.60;99.90
